Dunlow, WV (25511)

06:13 PM EST del 21 Dicembre 2014 (GMT -0500)
Near Salt Rock Elementary School | Change Station
CLOSE
Current Station
Stazione meteo personale
Location: Salt Rock, WV
Altitudine: 627 ft
Stazioni meteo nelle vicinanze

Alt. 627 ft 38.32 °N, 82.23 °W | Updated 3 minutes ago

Sereno
Sereno
32.7 °F
Sembra 33 °F
N
2.0
Vento Variabile Vento da SO
Gusts 3.0 mph

Oggi
Massima -- | Minima -- °F
--% Possibilità di precip.
Ieri
Massima -- | Minima -- °F
Precip. -- in
7:41 AM 5:13 PM
Luna calante, 0% visible
Pressione 30.14 in
Visibilità 10.0 miglia
Nuvole Sereno
Raffreddamento del vento 33 °F
Punto di rugiada 28 °F
Umidità 84%
Piovosità 0.00 in
Spessore del manto nevoso Non disponibile.
Raggi UV 0 fuori da 12
Polline .10 fuori da 12
Qualità dell'aria Non disponibile.
Flu Activity Non disponibile.
METAR KSJS 212255Z AUTO 01003KT 10SM CLR 04/M02 A3014 RMK AO2 T00371022

More Conditions Fewer Conditions

Pressione 30.14 in
Visibilità 10.0 miglia
Nuvole Sereno
Raffreddamento del vento 33 °F
Punto di rugiada 28 °F
Umidità 84%
Piovosità 0.00 in
Spessore del manto nevoso Non disponibile.
Raggi UV 0 fuori da 12
Polline .10 fuori da 12
Qualità dell'aria Non disponibile.
Flu Activity Non disponibile.
METAR KSJS 212255Z AUTO 01003KT 10SM CLR 04/M02 A3014 RMK AO2 T00371022

More Conditions Fewer Conditions

10-Day Weather Forecast

Almanac

Astronomia

Dec. 21, 2014 Alba Tramonto
Ora attuale
Crepuscolo civile
Crepuscolo nautico
Crepuscolo astronomico
Luna
Estensione della luce visibile
Lunghezza del giorno
Tomorrow will be .
, % of the Moon is Illuminated

Gli estremi di oggi

State Highs State Lows

Community

WunderPhotos

Upload Photos

1,779,502 foto caricate!

WunderBlogs® & News

Nearby

Qualità dell'aria

  Qualità dell'aria Indice AQ Inquinante
Not available.

Profondità neve

Stazione Profondità Altitudine

Attività sismica

Città  Distanza Mag. Data & Ora
Minimo Magnitudo Mostrato è 2.5.

Temperature delle acque costiere

Località Temperatura

Stazioni meteo nelle vicinanze